Карточка аэропорта UAUU

Внимание!
Информация на этой странице в стадии наполнения.
Если вы не увидели какой-то информации, или заметили неточность - пожалуйста сообщите нам!
Спасибо!
Команда XR-STAFF
Название аэропортаКостанай
Название аэропорта (англ.)Kostanay
Превышение600 ft. (182.9 m.)
Координаты53°12.414', 63°33.018'
Высота перехода10000
Эшелон переходаFL120, QNH<733:FL130
Коды ответчика0660-0667, 7230-7237
Зона ОрВДНур-Султан РПИ (UACN)
Данные METARUAUU 160800Z 19010MPS 9999 BKN043 20/09 Q1001 NOSIG RMK QFE735/0980
Проноз погоды (TAF)
NOTAMshow/hide NOTAM
AWOS   TABLE

Информация о ВПП

ВПП Длина ВПП (м.) Покрытие Курс ВПП Частота ILS
152514Асфальтобетон145111.7
332514Асфальтобетон325110.7

Диспетчерские позиции




Спутниковое изображение